sensor_id;sensor_type;location;lat;lon;timestamp;temperature;humidity
14735;DHT22;7458;49.002;8.472;2022-11-20T00:01:23;6.10;99.90
14735;DHT22;7458;49.002;8.472;2022-11-20T00:03:52;6.10;99.90
14735;DHT22;7458;49.002;8.472;2022-11-20T00:06:19;6.10;99.90
14735;DHT22;7458;49.002;8.472;2022-11-20T00:08:46;6.10;99.90
14735;DHT22;7458;49.002;8.472;2022-11-20T00:11:15;6.00;99.90
14735;DHT22;7458;49.002;8.472;2022-11-20T00:13:44;6.00;99.90
14735;DHT22;7458;49.002;8.472;2022-11-20T00:16:12;6.00;99.90
14735;DHT22;7458;49.002;8.472;2022-11-20T00:18:39;6.00;99.90
14735;DHT22;7458;49.002;8.472;2022-11-20T00:21:06;6.00;99.90
14735;DHT22;7458;49.002;8.472;2022-11-20T00:23:35;6.00;99.90
14735;DHT22;7458;49.002;8.472;2022-11-20T00:26:10;6.10;99.90
14735;DHT22;7458;49.002;8.472;2022-11-20T00:28:38;6.10;99.90
14735;DHT22;7458;49.002;8.472;2022-11-20T00:31:12;6.10;99.90
14735;DHT22;7458;49.002;8.472;2022-11-20T00:33:40;6.10;99.90
14735;DHT22;7458;49.002;8.472;2022-11-20T00:36:11;6.10;99.90
14735;DHT22;7458;49.002;8.472;2022-11-20T00:38:42;6.20;99.90
14735;DHT22;7458;49.002;8.472;2022-11-20T00:41:10;6.20;99.90
14735;DHT22;7458;49.002;8.472;2022-11-20T00:43:38;6.20;99.90
14735;DHT22;7458;49.002;8.472;2022-11-20T00:46:10;6.20;99.90
14735;DHT22;7458;49.002;8.472;2022-11-20T00:48:41;6.30;99.90
14735;DHT22;7458;49.002;8.472;2022-11-20T00:51:07;6.20;99.90
14735;DHT22;7458;49.002;8.472;2022-11-20T00:53:34;6.20;99.90
14735;DHT22;7458;49.002;8.472;2022-11-20T00:56:06;6.20;99.90
14735;DHT22;7458;49.002;8.472;2022-11-20T00:58:36;6.30;99.90
14735;DHT22;7458;49.002;8.472;2022-11-20T01:01:15;6.30;99.90
14735;DHT22;7458;49.002;8.472;2022-11-20T01:03:53;6.30;99.90
14735;DHT22;7458;49.002;8.472;2022-11-20T01:06:23;6.40;99.90
14735;DHT22;7458;49.002;8.472;2022-11-20T01:09:03;6.30;99.90
14735;DHT22;7458;49.002;8.472;2022-11-20T01:11:34;6.40;99.90
14735;DHT22;7458;49.002;8.472;2022-11-20T01:14:04;6.40;99.90
14735;DHT22;7458;49.002;8.472;2022-11-20T01:16:37;6.40;99.90
14735;DHT22;7458;49.002;8.472;2022-11-20T01:19:09;6.40;99.90
14735;DHT22;7458;49.002;8.472;2022-11-20T01:21:38;6.50;99.90
14735;DHT22;7458;49.002;8.472;2022-11-20T01:24:08;6.40;99.90
14735;DHT22;7458;49.002;8.472;2022-11-20T01:26:37;6.50;99.90
14735;DHT22;7458;49.002;8.472;2022-11-20T01:29:06;6.50;99.90
14735;DHT22;7458;49.002;8.472;2022-11-20T01:31:36;6.50;99.90
14735;DHT22;7458;49.002;8.472;2022-11-20T01:34:15;6.50;99.90
14735;DHT22;7458;49.002;8.472;2022-11-20T01:36:43;6.50;99.90
14735;DHT22;7458;49.002;8.472;2022-11-20T01:39:18;6.60;99.90
14735;DHT22;7458;49.002;8.472;2022-11-20T01:41:47;6.60;99.90
14735;DHT22;7458;49.002;8.472;2022-11-20T01:47:25;6.70;99.90
14735;DHT22;7458;49.002;8.472;2022-11-20T01:50:06;6.60;99.90
14735;DHT22;7458;49.002;8.472;2022-11-20T01:52:44;6.70;99.90
14735;DHT22;7458;49.002;8.472;2022-11-20T01:55:20;6.70;99.90
14735;DHT22;7458;49.002;8.472;2022-11-20T01:57:49;6.80;99.90
14735;DHT22;7458;49.002;8.472;2022-11-20T02:00:17;6.80;99.90
14735;DHT22;7458;49.002;8.472;2022-11-20T02:02:48;6.70;99.90
14735;DHT22;7458;49.002;8.472;2022-11-20T02:05:49;6.80;99.90
14735;DHT22;7458;49.002;8.472;2022-11-20T02:08:20;6.80;99.90
14735;DHT22;7458;49.002;8.472;2022-11-20T02:10:47;6.90;99.90
14735;DHT22;7458;49.002;8.472;2022-11-20T02:13:13;6.90;99.90
14735;DHT22;7458;49.002;8.472;2022-11-20T02:15:57;6.90;99.90
14735;DHT22;7458;49.002;8.472;2022-11-20T02:18:23;7.00;99.90
14735;DHT22;7458;49.002;8.472;2022-11-20T02:21:01;7.00;99.90
14735;DHT22;7458;49.002;8.472;2022-11-20T02:23:33;6.90;99.90
14735;DHT22;7458;49.002;8.472;2022-11-20T02:26:08;7.00;99.90
14735;DHT22;7458;49.002;8.472;2022-11-20T02:28:38;7.00;99.90
14735;DHT22;7458;49.002;8.472;2022-11-20T02:31:04;7.00;99.90
14735;DHT22;7458;49.002;8.472;2022-11-20T02:33:30;7.10;99.90
14735;DHT22;7458;49.002;8.472;2022-11-20T02:35:56;7.10;99.90
14735;DHT22;7458;49.002;8.472;2022-11-20T02:38:21;7.20;99.90
14735;DHT22;7458;49.002;8.472;2022-11-20T02:40:47;7.20;99.90
14735;DHT22;7458;49.002;8.472;2022-11-20T02:43:15;7.20;99.90
14735;DHT22;7458;49.002;8.472;2022-11-20T02:45:41;7.20;99.90
14735;DHT22;7458;49.002;8.472;2022-11-20T02:48:07;7.20;99.90
14735;DHT22;7458;49.002;8.472;2022-11-20T02:50:33;7.30;99.90
14735;DHT22;7458;49.002;8.472;2022-11-20T02:53:01;7.30;99.90
14735;DHT22;7458;49.002;8.472;2022-11-20T02:55:26;7.30;99.90
14735;DHT22;7458;49.002;8.472;2022-11-20T02:57:52;7.30;99.90
14735;DHT22;7458;49.002;8.472;2022-11-20T03:00:18;7.40;99.90
14735;DHT22;7458;49.002;8.472;2022-11-20T03:02:44;7.40;99.90
14735;DHT22;7458;49.002;8.472;2022-11-20T03:05:10;7.40;99.90
14735;DHT22;7458;49.002;8.472;2022-11-20T03:07:35;7.40;99.90
14735;DHT22;7458;49.002;8.472;2022-11-20T03:10:01;7.40;99.90
14735;DHT22;7458;49.002;8.472;2022-11-20T03:12:27;7.40;99.90
14735;DHT22;7458;49.002;8.472;2022-11-20T03:14:52;7.50;99.90
14735;DHT22;7458;49.002;8.472;2022-11-20T03:17:18;7.40;99.90
14735;DHT22;7458;49.002;8.472;2022-11-20T03:19:44;7.30;99.90
14735;DHT22;7458;49.002;8.472;2022-11-20T03:22:10;7.40;99.90
14735;DHT22;7458;49.002;8.472;2022-11-20T03:24:35;7.00;99.90
14735;DHT22;7458;49.002;8.472;2022-11-20T03:27:01;7.50;99.90
14735;DHT22;7458;49.002;8.472;2022-11-20T03:29:27;7.50;99.90
14735;DHT22;7458;49.002;8.472;2022-11-20T03:31:52;7.50;99.90
14735;DHT22;7458;49.002;8.472;2022-11-20T03:34:18;7.60;99.90
14735;DHT22;7458;49.002;8.472;2022-11-20T03:36:44;7.70;99.90
14735;DHT22;7458;49.002;8.472;2022-11-20T03:39:10;7.70;99.90
14735;DHT22;7458;49.002;8.472;2022-11-20T03:41:37;7.70;99.90
14735;DHT22;7458;49.002;8.472;2022-11-20T03:44:07;7.80;99.90
14735;DHT22;7458;49.002;8.472;2022-11-20T03:46:35;7.70;99.90
14735;DHT22;7458;49.002;8.472;2022-11-20T03:49:01;7.80;99.90
14735;DHT22;7458;49.002;8.472;2022-11-20T03:51:28;7.90;99.90
14735;DHT22;7458;49.002;8.472;2022-11-20T03:53:58;7.80;99.90
14735;DHT22;7458;49.002;8.472;2022-11-20T03:56:28;7.90;99.90
14735;DHT22;7458;49.002;8.472;2022-11-20T03:58:56;7.80;99.90
14735;DHT22;7458;49.002;8.472;2022-11-20T04:01:28;7.90;99.90
14735;DHT22;7458;49.002;8.472;2022-11-20T04:03:56;7.90;99.90
14735;DHT22;7458;49.002;8.472;2022-11-20T04:06:28;7.90;99.90
14735;DHT22;7458;49.002;8.472;2022-11-20T04:08:58;7.90;99.90
14735;DHT22;7458;49.002;8.472;2022-11-20T04:11:25;7.80;99.90
14735;DHT22;7458;49.002;8.472;2022-11-20T04:13:58;7.90;99.90
14735;DHT22;7458;49.002;8.472;2022-11-20T04:16:28;7.90;99.90
14735;DHT22;7458;49.002;8.472;2022-11-20T04:18:57;7.90;99.90
14735;DHT22;7458;49.002;8.472;2022-11-20T04:21:26;7.90;99.90
14735;DHT22;7458;49.002;8.472;2022-11-20T04:23:53;7.90;99.90
14735;DHT22;7458;49.002;8.472;2022-11-20T04:26:20;7.90;99.90
14735;DHT22;7458;49.002;8.472;2022-11-20T04:28:48;7.80;99.90
14735;DHT22;7458;49.002;8.472;2022-11-20T04:31:16;7.80;99.90
14735;DHT22;7458;49.002;8.472;2022-11-20T04:33:43;7.80;99.90
14735;DHT22;7458;49.002;8.472;2022-11-20T04:36:15;7.90;99.90
14735;DHT22;7458;49.002;8.472;2022-11-20T04:38:57;7.80;99.90
14735;DHT22;7458;49.002;8.472;2022-11-20T04:41:32;8.00;99.90
14735;DHT22;7458;49.002;8.472;2022-11-20T04:44:01;8.00;99.90
14735;DHT22;7458;49.002;8.472;2022-11-20T04:46:30;8.00;99.90
14735;DHT22;7458;49.002;8.472;2022-11-20T04:48:59;8.00;99.90
14735;DHT22;7458;49.002;8.472;2022-11-20T04:51:25;8.00;99.90
14735;DHT22;7458;49.002;8.472;2022-11-20T04:53:51;8.00;99.90
14735;DHT22;7458;49.002;8.472;2022-11-20T04:56:17;8.00;99.90
14735;DHT22;7458;49.002;8.472;2022-11-20T04:58:43;8.00;99.90
14735;DHT22;7458;49.002;8.472;2022-11-20T05:01:16;8.00;99.90
14735;DHT22;7458;49.002;8.472;2022-11-20T05:03:44;8.10;99.90
14735;DHT22;7458;49.002;8.472;2022-11-20T05:06:12;8.10;99.90
14735;DHT22;7458;49.002;8.472;2022-11-20T05:08:39;8.10;99.90
14735;DHT22;7458;49.002;8.472;2022-11-20T05:11:12;8.00;99.90
14735;DHT22;7458;49.002;8.472;2022-11-20T05:13:40;8.10;99.90
14735;DHT22;7458;49.002;8.472;2022-11-20T05:16:08;8.00;99.90
14735;DHT22;7458;49.002;8.472;2022-11-20T05:18:36;8.10;99.90
14735;DHT22;7458;49.002;8.472;2022-11-20T05:21:03;8.10;99.90
14735;DHT22;7458;49.002;8.472;2022-11-20T05:23:31;8.10;99.90
14735;DHT22;7458;49.002;8.472;2022-11-20T05:25:57;8.10;99.90
14735;DHT22;7458;49.002;8.472;2022-11-20T05:28:24;8.10;99.90
14735;DHT22;7458;49.002;8.472;2022-11-20T05:30:51;8.10;99.90
14735;DHT22;7458;49.002;8.472;2022-11-20T05:33:18;8.10;99.90
14735;DHT22;7458;49.002;8.472;2022-11-20T05:35:44;8.80;99.90
14735;DHT22;7458;49.002;8.472;2022-11-20T05:38:10;8.10;99.90
14735;DHT22;7458;49.002;8.472;2022-11-20T05:40:36;8.10;99.90
14735;DHT22;7458;49.002;8.472;2022-11-20T05:43:02;8.10;99.90
14735;DHT22;7458;49.002;8.472;2022-11-20T05:45:28;8.10;99.90
14735;DHT22;7458;49.002;8.472;2022-11-20T05:47:57;8.10;99.90
14735;DHT22;7458;49.002;8.472;2022-11-20T05:50:23;8.10;99.90
14735;DHT22;7458;49.002;8.472;2022-11-20T05:52:49;8.10;99.90
14735;DHT22;7458;49.002;8.472;2022-11-20T05:55:14;8.20;99.90
14735;DHT22;7458;49.002;8.472;2022-11-20T05:57:40;8.10;99.90
14735;DHT22;7458;49.002;8.472;2022-11-20T06:00:07;8.10;99.90
14735;DHT22;7458;49.002;8.472;2022-11-20T06:02:35;8.10;99.90
14735;DHT22;7458;49.002;8.472;2022-11-20T06:05:01;8.10;99.90
14735;DHT22;7458;49.002;8.472;2022-11-20T06:07:27;8.20;99.90
14735;DHT22;7458;49.002;8.472;2022-11-20T06:09:52;8.20;99.90
14735;DHT22;7458;49.002;8.472;2022-11-20T06:12:18;8.10;99.90
14735;DHT22;7458;49.002;8.472;2022-11-20T06:14:44;8.20;99.90
14735;DHT22;7458;49.002;8.472;2022-11-20T06:17:09;8.20;99.90
14735;DHT22;7458;49.002;8.472;2022-11-20T06:19:35;8.20;99.90
14735;DHT22;7458;49.002;8.472;2022-11-20T06:22:01;8.20;99.90
14735;DHT22;7458;49.002;8.472;2022-11-20T06:24:26;8.20;99.90
14735;DHT22;7458;49.002;8.472;2022-11-20T06:26:52;8.20;99.90
14735;DHT22;7458;49.002;8.472;2022-11-20T06:29:18;8.20;99.90
14735;DHT22;7458;49.002;8.472;2022-11-20T06:31:43;8.10;99.90
14735;DHT22;7458;49.002;8.472;2022-11-20T06:34:10;8.20;99.90
14735;DHT22;7458;49.002;8.472;2022-11-20T06:36:35;8.20;99.90
14735;DHT22;7458;49.002;8.472;2022-11-20T06:39:01;8.20;99.90
14735;DHT22;7458;49.002;8.472;2022-11-20T06:41:28;8.20;99.90
14735;DHT22;7458;49.002;8.472;2022-11-20T06:43:53;8.20;99.90
14735;DHT22;7458;49.002;8.472;2022-11-20T06:46:20;8.30;99.90
14735;DHT22;7458;49.002;8.472;2022-11-20T06:48:47;8.30;99.90
14735;DHT22;7458;49.002;8.472;2022-11-20T06:51:14;8.30;99.90
14735;DHT22;7458;49.002;8.472;2022-11-20T06:53:40;8.30;99.90
14735;DHT22;7458;49.002;8.472;2022-11-20T06:56:07;8.20;99.90
14735;DHT22;7458;49.002;8.472;2022-11-20T06:58:34;8.30;99.90
14735;DHT22;7458;49.002;8.472;2022-11-20T07:01:07;8.30;99.90
14735;DHT22;7458;49.002;8.472;2022-11-20T07:03:36;8.30;99.90
14735;DHT22;7458;49.002;8.472;2022-11-20T07:06:03;8.30;99.90
14735;DHT22;7458;49.002;8.472;2022-11-20T07:08:30;8.30;99.90
14735;DHT22;7458;49.002;8.472;2022-11-20T07:10:58;8.30;99.90
14735;DHT22;7458;49.002;8.472;2022-11-20T07:13:26;8.40;99.90
14735;DHT22;7458;49.002;8.472;2022-11-20T07:15:53;8.30;99.90
14735;DHT22;7458;49.002;8.472;2022-11-20T07:18:19;8.30;99.90
14735;DHT22;7458;49.002;8.472;2022-11-20T07:20:44;8.40;99.90
14735;DHT22;7458;49.002;8.472;2022-11-20T07:23:10;8.30;99.90
14735;DHT22;7458;49.002;8.472;2022-11-20T07:25:36;8.40;99.90
14735;DHT22;7458;49.002;8.472;2022-11-20T07:28:02;8.30;99.90
14735;DHT22;7458;49.002;8.472;2022-11-20T07:30:29;8.40;99.90
14735;DHT22;7458;49.002;8.472;2022-11-20T07:32:56;8.40;99.90
14735;DHT22;7458;49.002;8.472;2022-11-20T07:35:23;8.40;99.90
14735;DHT22;7458;49.002;8.472;2022-11-20T07:37:50;8.30;99.90
14735;DHT22;7458;49.002;8.472;2022-11-20T07:40:16;8.30;99.90
14735;DHT22;7458;49.002;8.472;2022-11-20T07:42:49;8.30;99.90
14735;DHT22;7458;49.002;8.472;2022-11-20T07:45:17;8.30;99.90
14735;DHT22;7458;49.002;8.472;2022-11-20T07:47:47;8.20;99.90
14735;DHT22;7458;49.002;8.472;2022-11-20T07:50:13;8.20;99.90
14735;DHT22;7458;49.002;8.472;2022-11-20T07:52:39;6.70;99.90
14735;DHT22;7458;49.002;8.472;2022-11-20T07:55:06;8.20;99.90
14735;DHT22;7458;49.002;8.472;2022-11-20T07:57:32;8.20;99.90
14735;DHT22;7458;49.002;8.472;2022-11-20T07:59:58;8.20;99.90
14735;DHT22;7458;49.002;8.472;2022-11-20T08:02:24;8.30;99.90
14735;DHT22;7458;49.002;8.472;2022-11-20T08:04:50;8.30;99.90
14735;DHT22;7458;49.002;8.472;2022-11-20T08:07:16;8.20;99.90
14735;DHT22;7458;49.002;8.472;2022-11-20T08:09:42;8.10;99.90
14735;DHT22;7458;49.002;8.472;2022-11-20T08:12:10;8.20;99.90
14735;DHT22;7458;49.002;8.472;2022-11-20T08:15:07;8.20;99.90
14735;DHT22;7458;49.002;8.472;2022-11-20T08:17:33;8.30;99.90
14735;DHT22;7458;49.002;8.472;2022-11-20T08:19:59;8.40;99.90
14735;DHT22;7458;49.002;8.472;2022-11-20T08:22:25;8.40;99.90
14735;DHT22;7458;49.002;8.472;2022-11-20T08:24:51;8.40;99.90
14735;DHT22;7458;49.002;8.472;2022-11-20T08:27:16;8.40;99.90
14735;DHT22;7458;49.002;8.472;2022-11-20T08:29:42;8.40;99.90
14735;DHT22;7458;49.002;8.472;2022-11-20T08:32:08;8.40;99.90
14735;DHT22;7458;49.002;8.472;2022-11-20T08:34:33;8.40;99.90
14735;DHT22;7458;49.002;8.472;2022-11-20T08:37:01;8.50;99.90
14735;DHT22;7458;49.002;8.472;2022-11-20T08:39:28;8.50;99.90
14735;DHT22;7458;49.002;8.472;2022-11-20T08:41:53;8.50;99.90
14735;DHT22;7458;49.002;8.472;2022-11-20T08:44:19;8.50;99.90
14735;DHT22;7458;49.002;8.472;2022-11-20T08:46:45;8.50;99.90
14735;DHT22;7458;49.002;8.472;2022-11-20T08:49:13;8.50;99.90
14735;DHT22;7458;49.002;8.472;2022-11-20T08:51:40;8.50;99.90
14735;DHT22;7458;49.002;8.472;2022-11-20T08:54:07;8.50;99.90
14735;DHT22;7458;49.002;8.472;2022-11-20T08:56:33;8.60;99.90
14735;DHT22;7458;49.002;8.472;2022-11-20T08:58:59;8.60;99.90
14735;DHT22;7458;49.002;8.472;2022-11-20T09:01:26;8.70;99.90
14735;DHT22;7458;49.002;8.472;2022-11-20T09:03:55;8.60;99.90
14735;DHT22;7458;49.002;8.472;2022-11-20T09:06:25;8.70;99.90
14735;DHT22;7458;49.002;8.472;2022-11-20T09:08:54;8.70;99.90
14735;DHT22;7458;49.002;8.472;2022-11-20T09:11:20;8.80;99.90
14735;DHT22;7458;49.002;8.472;2022-11-20T09:13:46;8.80;99.90
14735;DHT22;7458;49.002;8.472;2022-11-20T09:16:12;8.80;99.90
14735;DHT22;7458;49.002;8.472;2022-11-20T09:18:38;8.90;99.90
14735;DHT22;7458;49.002;8.472;2022-11-20T09:21:10;9.30;99.90
14735;DHT22;7458;49.002;8.472;2022-11-20T09:23:38;9.10;99.90
14735;DHT22;7458;49.002;8.472;2022-11-20T09:26:14;9.10;99.90
14735;DHT22;7458;49.002;8.472;2022-11-20T09:28:40;8.90;99.90
14735;DHT22;7458;49.002;8.472;2022-11-20T09:31:19;8.90;99.90
14735;DHT22;7458;49.002;8.472;2022-11-20T09:33:48;8.80;99.90
14735;DHT22;7458;49.002;8.472;2022-11-20T09:36:14;8.80;99.90
14735;DHT22;7458;49.002;8.472;2022-11-20T09:38:41;8.90;99.90
14735;DHT22;7458;49.002;8.472;2022-11-20T09:44:38;8.90;99.90
14735;DHT22;7458;49.002;8.472;2022-11-20T09:47:51;8.90;99.90
14735;DHT22;7458;49.002;8.472;2022-11-20T09:55:37;8.80;99.90
14735;DHT22;7458;49.002;8.472;2022-11-20T09:58:06;8.80;99.90
14735;DHT22;7458;49.002;8.472;2022-11-20T10:00:41;8.80;99.90
14735;DHT22;7458;49.002;8.472;2022-11-20T10:03:41;8.70;99.90
14735;DHT22;7458;49.002;8.472;2022-11-20T10:06:24;8.80;99.90
14735;DHT22;7458;49.002;8.472;2022-11-20T10:14:31;8.80;99.90
14735;DHT22;7458;49.002;8.472;2022-11-20T10:17:45;8.90;99.90
14735;DHT22;7458;49.002;8.472;2022-11-20T10:20:48;8.70;99.90
14735;DHT22;7458;49.002;8.472;2022-11-20T10:24:27;8.60;99.90
14735;DHT22;7458;49.002;8.472;2022-11-20T10:30:20;8.70;99.90
14735;DHT22;7458;49.002;8.472;2022-11-20T10:32:52;8.90;99.90
14735;DHT22;7458;49.002;8.472;2022-11-20T10:35:32;9.10;99.90
14735;DHT22;7458;49.002;8.472;2022-11-20T10:40:58;9.50;99.90
14735;DHT22;7458;49.002;8.472;2022-11-20T10:43:45;9.80;99.90
14735;DHT22;7458;49.002;8.472;2022-11-20T10:46:39;10.30;99.90
14735;DHT22;7458;49.002;8.472;2022-11-20T10:49:26;10.70;99.90
14735;DHT22;7458;49.002;8.472;2022-11-20T10:54:38;10.40;99.90
14735;DHT22;7458;49.002;8.472;2022-11-20T10:59:51;10.30;99.90
14735;DHT22;7458;49.002;8.472;2022-11-20T11:02:56;11.20;99.90
14735;DHT22;7458;49.002;8.472;2022-11-20T11:05:36;11.40;99.90
14735;DHT22;7458;49.002;8.472;2022-11-20T11:08:15;11.30;99.90
14735;DHT22;7458;49.002;8.472;2022-11-20T11:10:55;10.90;99.90
14735;DHT22;7458;49.002;8.472;2022-11-20T11:13:33;10.90;99.90
14735;DHT22;7458;49.002;8.472;2022-11-20T11:15:58;11.10;99.90
14735;DHT22;7458;49.002;8.472;2022-11-20T11:18:32;11.10;99.90
14735;DHT22;7458;49.002;8.472;2022-11-20T11:21:01;11.20;99.90
14735;DHT22;7458;49.002;8.472;2022-11-20T11:26:18;11.50;99.90
14735;DHT22;7458;49.002;8.472;2022-11-20T11:29:00;11.40;99.90
14735;DHT22;7458;49.002;8.472;2022-11-20T11:31:33;11.40;99.90
14735;DHT22;7458;49.002;8.472;2022-11-20T11:34:07;11.40;99.90
14735;DHT22;7458;49.002;8.472;2022-11-20T11:36:38;11.20;99.90
14735;DHT22;7458;49.002;8.472;2022-11-20T11:39:12;11.00;99.90
14735;DHT22;7458;49.002;8.472;2022-11-20T11:41:41;10.80;99.90
14735;DHT22;7458;49.002;8.472;2022-11-20T11:44:24;10.80;99.90
14735;DHT22;7458;49.002;8.472;2022-11-20T11:47:30;10.80;99.90
14735;DHT22;7458;49.002;8.472;2022-11-20T11:58:04;10.80;99.90
14735;DHT22;7458;49.002;8.472;2022-11-20T12:00:35;10.80;99.90
14735;DHT22;7458;49.002;8.472;2022-11-20T12:06:16;11.20;99.90
14735;DHT22;7458;49.002;8.472;2022-11-20T12:08:57;11.20;99.90
14735;DHT22;7458;49.002;8.472;2022-11-20T12:14:19;11.40;99.90
14735;DHT22;7458;49.002;8.472;2022-11-20T12:16:52;11.60;99.90
14735;DHT22;7458;49.002;8.472;2022-11-20T12:19:20;11.60;99.90
14735;DHT22;7458;49.002;8.472;2022-11-20T12:21:58;11.50;99.90
14735;DHT22;7458;49.002;8.472;2022-11-20T12:31:09;11.20;99.90
14735;DHT22;7458;49.002;8.472;2022-11-20T12:36:40;10.90;99.90
14735;DHT22;7458;49.002;8.472;2022-11-20T12:54:26;11.20;99.90
14735;DHT22;7458;49.002;8.472;2022-11-20T12:57:24;11.20;99.90
14735;DHT22;7458;49.002;8.472;2022-11-20T13:00:27;11.20;99.90
14735;DHT22;7458;49.002;8.472;2022-11-20T13:08:30;11.10;99.90
14735;DHT22;7458;49.002;8.472;2022-11-20T13:11:20;11.10;99.90
14735;DHT22;7458;49.002;8.472;2022-11-20T13:19:24;11.00;99.90
14735;DHT22;7458;49.002;8.472;2022-11-20T13:21:51;11.00;99.90
14735;DHT22;7458;49.002;8.472;2022-11-20T13:29:31;11.00;99.90
14735;DHT22;7458;49.002;8.472;2022-11-20T13:34:37;10.90;99.90
14735;DHT22;7458;49.002;8.472;2022-11-20T13:37:03;10.90;99.90
14735;DHT22;7458;49.002;8.472;2022-11-20T13:39:34;10.90;99.90
14735;DHT22;7458;49.002;8.472;2022-11-20T13:44:42;11.00;99.90
14735;DHT22;7458;49.002;8.472;2022-11-20T13:47:26;11.00;99.90
14735;DHT22;7458;49.002;8.472;2022-11-20T13:49:54;10.90;99.90
14735;DHT22;7458;49.002;8.472;2022-11-20T13:52:33;10.80;99.90
14735;DHT22;7458;49.002;8.472;2022-11-20T13:55:35;10.80;99.90
14735;DHT22;7458;49.002;8.472;2022-11-20T13:58:29;10.70;99.90
14735;DHT22;7458;49.002;8.472;2022-11-20T14:01:30;10.70;99.90
14735;DHT22;7458;49.002;8.472;2022-11-20T14:03:57;10.50;99.90
14735;DHT22;7458;49.002;8.472;2022-11-20T14:06:32;10.50;99.90
14735;DHT22;7458;49.002;8.472;2022-11-20T14:09:11;10.60;99.90
14735;DHT22;7458;49.002;8.472;2022-11-20T14:11:46;10.50;99.90
14735;DHT22;7458;49.002;8.472;2022-11-20T14:14:18;10.40;99.90
14735;DHT22;7458;49.002;8.472;2022-11-20T14:16:47;10.50;99.90
14735;DHT22;7458;49.002;8.472;2022-11-20T14:21:46;10.30;99.90
14735;DHT22;7458;49.002;8.472;2022-11-20T14:24:22;10.30;99.90
14735;DHT22;7458;49.002;8.472;2022-11-20T14:26:50;10.30;99.90
14735;DHT22;7458;49.002;8.472;2022-11-20T14:29:19;10.30;99.90
14735;DHT22;7458;49.002;8.472;2022-11-20T14:31:50;10.30;99.90
14735;DHT22;7458;49.002;8.472;2022-11-20T14:34:24;10.30;99.90
14735;DHT22;7458;49.002;8.472;2022-11-20T14:37:12;10.40;99.90
14735;DHT22;7458;49.002;8.472;2022-11-20T14:39:53;10.30;99.90
14735;DHT22;7458;49.002;8.472;2022-11-20T14:42:22;10.30;99.90
14735;DHT22;7458;49.002;8.472;2022-11-20T14:44:51;10.30;99.90
14735;DHT22;7458;49.002;8.472;2022-11-20T14:47:23;10.30;99.90
14735;DHT22;7458;49.002;8.472;2022-11-20T14:49:52;10.30;99.90
14735;DHT22;7458;49.002;8.472;2022-11-20T14:52:25;10.20;99.90
14735;DHT22;7458;49.002;8.472;2022-11-20T14:57:32;10.10;99.90
14735;DHT22;7458;49.002;8.472;2022-11-20T15:02:41;10.10;99.90
14735;DHT22;7458;49.002;8.472;2022-11-20T15:05:08;10.10;99.90
14735;DHT22;7458;49.002;8.472;2022-11-20T15:07:39;10.00;99.90
14735;DHT22;7458;49.002;8.472;2022-11-20T15:10:13;10.00;99.90
14735;DHT22;7458;49.002;8.472;2022-11-20T15:12:49;10.00;99.90
14735;DHT22;7458;49.002;8.472;2022-11-20T15:15:23;10.00;99.90
14735;DHT22;7458;49.002;8.472;2022-11-20T15:17:54;10.00;99.90
14735;DHT22;7458;49.002;8.472;2022-11-20T15:20:25;10.00;99.90
14735;DHT22;7458;49.002;8.472;2022-11-20T15:22:53;9.90;99.90
14735;DHT22;7458;49.002;8.472;2022-11-20T15:25:20;9.90;99.90
14735;DHT22;7458;49.002;8.472;2022-11-20T15:27:48;9.80;99.90
14735;DHT22;7458;49.002;8.472;2022-11-20T15:30:20;9.80;99.90
14735;DHT22;7458;49.002;8.472;2022-11-20T15:32:46;9.80;99.90
14735;DHT22;7458;49.002;8.472;2022-11-20T15:35:14;9.80;99.90
14735;DHT22;7458;49.002;8.472;2022-11-20T15:37:41;9.80;99.90
14735;DHT22;7458;49.002;8.472;2022-11-20T15:40:08;9.80;99.90
14735;DHT22;7458;49.002;8.472;2022-11-20T15:42:35;9.80;99.90
14735;DHT22;7458;49.002;8.472;2022-11-20T15:45:00;9.80;99.90
14735;DHT22;7458;49.002;8.472;2022-11-20T15:47:30;10.00;99.90
14735;DHT22;7458;49.002;8.472;2022-11-20T15:49:58;10.00;99.90
14735;DHT22;7458;49.002;8.472;2022-11-20T15:52:24;10.10;99.90
14735;DHT22;7458;49.002;8.472;2022-11-20T15:54:50;10.00;99.90
14735;DHT22;7458;49.002;8.472;2022-11-20T15:57:15;10.10;99.90
14735;DHT22;7458;49.002;8.472;2022-11-20T15:59:41;10.00;99.90
14735;DHT22;7458;49.002;8.472;2022-11-20T16:02:11;10.00;99.90
14735;DHT22;7458;49.002;8.472;2022-11-20T16:04:38;10.00;99.90
14735;DHT22;7458;49.002;8.472;2022-11-20T16:07:04;9.90;99.90
14735;DHT22;7458;49.002;8.472;2022-11-20T16:09:30;9.80;99.90
14735;DHT22;7458;49.002;8.472;2022-11-20T16:11:55;9.80;99.90
14735;DHT22;7458;49.002;8.472;2022-11-20T16:14:23;9.70;99.90
14735;DHT22;7458;49.002;8.472;2022-11-20T16:17:07;9.80;99.90
14735;DHT22;7458;49.002;8.472;2022-11-20T16:19:33;9.80;99.90
14735;DHT22;7458;49.002;8.472;2022-11-20T16:21:59;9.80;99.90
14735;DHT22;7458;49.002;8.472;2022-11-20T16:24:28;9.80;99.90
14735;DHT22;7458;49.002;8.472;2022-11-20T16:26:54;9.80;99.90
14735;DHT22;7458;49.002;8.472;2022-11-20T16:29:20;9.90;99.90
14735;DHT22;7458;49.002;8.472;2022-11-20T16:31:46;9.90;99.90
14735;DHT22;7458;49.002;8.472;2022-11-20T16:34:12;10.00;99.90
14735;DHT22;7458;49.002;8.472;2022-11-20T16:36:42;10.00;99.90
14735;DHT22;7458;49.002;8.472;2022-11-20T16:39:10;10.00;99.90
14735;DHT22;7458;49.002;8.472;2022-11-20T16:41:37;10.00;99.90
14735;DHT22;7458;49.002;8.472;2022-11-20T16:44:08;10.00;99.90
14735;DHT22;7458;49.002;8.472;2022-11-20T16:46:36;10.10;99.90
14735;DHT22;7458;49.002;8.472;2022-11-20T16:49:04;10.00;99.90
14735;DHT22;7458;49.002;8.472;2022-11-20T16:51:34;10.00;99.90
14735;DHT22;7458;49.002;8.472;2022-11-20T16:54:02;10.10;99.90
14735;DHT22;7458;49.002;8.472;2022-11-20T16:56:29;10.00;99.90
14735;DHT22;7458;49.002;8.472;2022-11-20T16:58:57;10.10;99.90
14735;DHT22;7458;49.002;8.472;2022-11-20T17:01:25;10.00;99.90
14735;DHT22;7458;49.002;8.472;2022-11-20T17:04:01;9.90;99.90
14735;DHT22;7458;49.002;8.472;2022-11-20T17:06:30;10.00;99.90
14735;DHT22;7458;49.002;8.472;2022-11-20T17:08:57;9.90;99.90
14735;DHT22;7458;49.002;8.472;2022-11-20T17:11:24;9.80;99.90
14735;DHT22;7458;49.002;8.472;2022-11-20T17:13:51;9.90;99.90
14735;DHT22;7458;49.002;8.472;2022-11-20T17:16:19;9.90;99.90
14735;DHT22;7458;49.002;8.472;2022-11-20T17:18:48;9.90;99.90
14735;DHT22;7458;49.002;8.472;2022-11-20T17:21:17;9.90;99.90
14735;DHT22;7458;49.002;8.472;2022-11-20T17:23:44;9.90;99.90
14735;DHT22;7458;49.002;8.472;2022-11-20T17:26:15;9.90;99.90
14735;DHT22;7458;49.002;8.472;2022-11-20T17:28:44;9.90;99.90
14735;DHT22;7458;49.002;8.472;2022-11-20T17:31:13;9.80;99.90
14735;DHT22;7458;49.002;8.472;2022-11-20T17:33:41;9.60;99.90
14735;DHT22;7458;49.002;8.472;2022-11-20T17:36:09;9.50;99.90
14735;DHT22;7458;49.002;8.472;2022-11-20T17:38:37;9.50;99.90
14735;DHT22;7458;49.002;8.472;2022-11-20T17:41:04;9.50;99.90
14735;DHT22;7458;49.002;8.472;2022-11-20T17:43:32;9.40;99.90
14735;DHT22;7458;49.002;8.472;2022-11-20T17:46:10;9.50;99.90
14735;DHT22;7458;49.002;8.472;2022-11-20T17:48:41;9.40;99.90
14735;DHT22;7458;49.002;8.472;2022-11-20T17:51:10;9.40;99.90
14735;DHT22;7458;49.002;8.472;2022-11-20T17:53:39;9.40;99.90
14735;DHT22;7458;49.002;8.472;2022-11-20T17:56:07;9.40;99.90
14735;DHT22;7458;49.002;8.472;2022-11-20T17:58:52;9.30;99.90